sensor_id;sensor_type;location;lat;lon;timestamp;P1;durP1;ratioP1;P2;durP2;ratioP2
4555;SDS011;2290;48.674;9.018;2024-01-10T00:01:42;15.73;;;7.40;;
4555;SDS011;2290;48.674;9.018;2024-01-10T00:04:07;21.57;;;7.83;;
4555;SDS011;2290;48.674;9.018;2024-01-10T00:06:33;17.70;;;7.20;;
4555;SDS011;2290;48.674;9.018;2024-01-10T00:08:58;17.30;;;7.17;;
4555;SDS011;2290;48.674;9.018;2024-01-10T00:11:24;20.00;;;8.40;;
4555;SDS011;2290;48.674;9.018;2024-01-10T00:13:50;23.00;;;7.50;;
4555;SDS011;2290;48.674;9.018;2024-01-10T00:16:16;18.47;;;7.40;;
4555;SDS011;2290;48.674;9.018;2024-01-10T00:18:44;20.37;;;8.03;;
4555;SDS011;2290;48.674;9.018;2024-01-10T00:21:10;20.10;;;8.00;;
4555;SDS011;2290;48.674;9.018;2024-01-10T00:23:36;12.00;;;7.30;;
4555;SDS011;2290;48.674;9.018;2024-01-10T00:26:02;13.63;;;7.47;;
4555;SDS011;2290;48.674;9.018;2024-01-10T00:28:28;17.53;;;7.73;;
4555;SDS011;2290;48.674;9.018;2024-01-10T00:30:54;16.97;;;8.20;;
4555;SDS011;2290;48.674;9.018;2024-01-10T00:33:19;13.13;;;7.40;;
4555;SDS011;2290;48.674;9.018;2024-01-10T00:35:45;13.63;;;7.17;;
4555;SDS011;2290;48.674;9.018;2024-01-10T00:38:10;18.30;;;7.53;;
4555;SDS011;2290;48.674;9.018;2024-01-10T00:40:37;13.37;;;7.73;;
4555;SDS011;2290;48.674;9.018;2024-01-10T00:43:04;16.07;;;7.10;;
4555;SDS011;2290;48.674;9.018;2024-01-10T00:45:29;19.10;;;7.93;;
4555;SDS011;2290;48.674;9.018;2024-01-10T00:47:55;14.60;;;7.33;;
4555;SDS011;2290;48.674;9.018;2024-01-10T00:50:20;15.63;;;7.10;;
4555;SDS011;2290;48.674;9.018;2024-01-10T00:52:46;17.40;;;7.80;;
4555;SDS011;2290;48.674;9.018;2024-01-10T00:55:13;15.90;;;8.30;;
4555;SDS011;2290;48.674;9.018;2024-01-10T00:57:39;13.90;;;7.33;;
4555;SDS011;2290;48.674;9.018;2024-01-10T01:00:06;16.40;;;6.57;;
4555;SDS011;2290;48.674;9.018;2024-01-10T01:02:34;14.50;;;6.97;;
4555;SDS011;2290;48.674;9.018;2024-01-10T01:05:02;13.40;;;7.47;;
4555;SDS011;2290;48.674;9.018;2024-01-10T01:07:29;14.03;;;7.63;;
4555;SDS011;2290;48.674;9.018;2024-01-10T01:09:55;21.87;;;8.00;;
4555;SDS011;2290;48.674;9.018;2024-01-10T01:12:20;16.80;;;8.20;;
4555;SDS011;2290;48.674;9.018;2024-01-10T01:14:47;20.10;;;8.77;;
4555;SDS011;2290;48.674;9.018;2024-01-10T01:17:13;17.80;;;7.40;;
4555;SDS011;2290;48.674;9.018;2024-01-10T01:19:38;14.07;;;7.30;;
4555;SDS011;2290;48.674;9.018;2024-01-10T01:22:04;16.03;;;8.30;;
4555;SDS011;2290;48.674;9.018;2024-01-10T01:24:29;16.50;;;7.93;;
4555;SDS011;2290;48.674;9.018;2024-01-10T01:26:56;17.27;;;7.40;;
4555;SDS011;2290;48.674;9.018;2024-01-10T01:29:21;19.07;;;7.33;;
4555;SDS011;2290;48.674;9.018;2024-01-10T01:31:47;16.00;;;7.50;;
4555;SDS011;2290;48.674;9.018;2024-01-10T01:34:13;18.47;;;8.47;;
4555;SDS011;2290;48.674;9.018;2024-01-10T01:36:39;18.97;;;8.27;;
4555;SDS011;2290;48.674;9.018;2024-01-10T01:39:04;24.53;;;8.60;;
4555;SDS011;2290;48.674;9.018;2024-01-10T01:41:30;15.93;;;8.40;;
4555;SDS011;2290;48.674;9.018;2024-01-10T01:43:56;21.47;;;9.63;;
4555;SDS011;2290;48.674;9.018;2024-01-10T01:46:22;14.90;;;8.00;;
4555;SDS011;2290;48.674;9.018;2024-01-10T01:48:48;18.27;;;8.40;;
4555;SDS011;2290;48.674;9.018;2024-01-10T01:51:14;19.07;;;7.70;;
4555;SDS011;2290;48.674;9.018;2024-01-10T01:53:41;18.57;;;8.57;;
4555;SDS011;2290;48.674;9.018;2024-01-10T01:56:09;18.67;;;8.27;;
4555;SDS011;2290;48.674;9.018;2024-01-10T01:58:36;13.07;;;7.30;;
4555;SDS011;2290;48.674;9.018;2024-01-10T02:01:03;16.30;;;7.60;;
4555;SDS011;2290;48.674;9.018;2024-01-10T02:03:33;15.40;;;6.87;;
4555;SDS011;2290;48.674;9.018;2024-01-10T02:06:00;15.93;;;7.73;;
4555;SDS011;2290;48.674;9.018;2024-01-10T02:08:29;17.07;;;7.20;;
4555;SDS011;2290;48.674;9.018;2024-01-10T02:11:02;14.43;;;7.07;;
4555;SDS011;2290;48.674;9.018;2024-01-10T02:13:29;14.80;;;6.83;;
4555;SDS011;2290;48.674;9.018;2024-01-10T02:15:57;13.90;;;6.20;;
4555;SDS011;2290;48.674;9.018;2024-01-10T02:18:23;15.13;;;6.63;;
4555;SDS011;2290;48.674;9.018;2024-01-10T02:20:49;15.80;;;7.63;;
4555;SDS011;2290;48.674;9.018;2024-01-10T02:23:15;14.63;;;7.87;;
4555;SDS011;2290;48.674;9.018;2024-01-10T02:25:40;19.10;;;7.03;;
4555;SDS011;2290;48.674;9.018;2024-01-10T02:28:06;20.27;;;6.90;;
4555;SDS011;2290;48.674;9.018;2024-01-10T02:30:34;17.30;;;7.80;;
4555;SDS011;2290;48.674;9.018;2024-01-10T02:32:59;13.03;;;6.07;;
4555;SDS011;2290;48.674;9.018;2024-01-10T02:35:25;18.20;;;7.63;;
4555;SDS011;2290;48.674;9.018;2024-01-10T02:37:51;15.93;;;6.97;;
4555;SDS011;2290;48.674;9.018;2024-01-10T02:40:19;16.60;;;7.17;;
4555;SDS011;2290;48.674;9.018;2024-01-10T02:42:46;14.90;;;6.43;;
4555;SDS011;2290;48.674;9.018;2024-01-10T02:45:12;12.00;;;5.97;;
4555;SDS011;2290;48.674;9.018;2024-01-10T02:47:39;13.63;;;6.17;;
4555;SDS011;2290;48.674;9.018;2024-01-10T02:50:05;14.47;;;7.00;;
4555;SDS011;2290;48.674;9.018;2024-01-10T02:52:32;17.67;;;8.20;;
4555;SDS011;2290;48.674;9.018;2024-01-10T02:54:58;18.97;;;6.30;;
4555;SDS011;2290;48.674;9.018;2024-01-10T02:57:23;14.10;;;6.90;;
4555;SDS011;2290;48.674;9.018;2024-01-10T02:59:49;17.13;;;7.53;;
4555;SDS011;2290;48.674;9.018;2024-01-10T03:02:15;16.83;;;8.10;;
4555;SDS011;2290;48.674;9.018;2024-01-10T03:04:41;16.37;;;7.40;;
4555;SDS011;2290;48.674;9.018;2024-01-10T03:07:07;13.20;;;7.60;;
4555;SDS011;2290;48.674;9.018;2024-01-10T03:09:32;16.57;;;6.67;;
4555;SDS011;2290;48.674;9.018;2024-01-10T03:11:59;17.23;;;7.87;;
4555;SDS011;2290;48.674;9.018;2024-01-10T03:14:25;12.83;;;6.53;;
4555;SDS011;2290;48.674;9.018;2024-01-10T03:16:52;14.10;;;6.80;;
4555;SDS011;2290;48.674;9.018;2024-01-10T03:19:18;12.97;;;6.73;;
4555;SDS011;2290;48.674;9.018;2024-01-10T03:21:43;16.77;;;6.33;;
4555;SDS011;2290;48.674;9.018;2024-01-10T03:24:10;14.10;;;5.70;;
4555;SDS011;2290;48.674;9.018;2024-01-10T03:26:36;12.40;;;6.80;;
4555;SDS011;2290;48.674;9.018;2024-01-10T03:29:03;14.80;;;7.00;;
4555;SDS011;2290;48.674;9.018;2024-01-10T03:31:31;15.20;;;7.43;;
4555;SDS011;2290;48.674;9.018;2024-01-10T03:33:57;16.40;;;7.27;;
4555;SDS011;2290;48.674;9.018;2024-01-10T03:36:23;18.03;;;7.53;;
4555;SDS011;2290;48.674;9.018;2024-01-10T03:38:50;13.93;;;6.47;;
4555;SDS011;2290;48.674;9.018;2024-01-10T03:41:17;12.10;;;5.73;;
4555;SDS011;2290;48.674;9.018;2024-01-10T03:43:44;18.00;;;7.63;;
4555;SDS011;2290;48.674;9.018;2024-01-10T03:46:10;17.20;;;7.23;;
4555;SDS011;2290;48.674;9.018;2024-01-10T03:48:36;16.67;;;7.53;;
4555;SDS011;2290;48.674;9.018;2024-01-10T03:51:02;12.87;;;6.23;;
4555;SDS011;2290;48.674;9.018;2024-01-10T03:53:28;17.90;;;6.97;;
4555;SDS011;2290;48.674;9.018;2024-01-10T03:55:55;21.30;;;7.20;;
4555;SDS011;2290;48.674;9.018;2024-01-10T03:58:21;18.83;;;7.27;;
4555;SDS011;2290;48.674;9.018;2024-01-10T04:00:46;18.00;;;7.17;;
4555;SDS011;2290;48.674;9.018;2024-01-10T04:03:12;16.13;;;7.80;;
4555;SDS011;2290;48.674;9.018;2024-01-10T04:05:37;15.77;;;6.90;;
4555;SDS011;2290;48.674;9.018;2024-01-10T04:08:03;13.10;;;6.50;;
4555;SDS011;2290;48.674;9.018;2024-01-10T04:10:29;15.63;;;7.00;;
4555;SDS011;2290;48.674;9.018;2024-01-10T04:12:54;15.13;;;6.30;;
4555;SDS011;2290;48.674;9.018;2024-01-10T04:15:20;14.30;;;6.37;;
4555;SDS011;2290;48.674;9.018;2024-01-10T04:17:48;14.80;;;7.40;;
4555;SDS011;2290;48.674;9.018;2024-01-10T04:20:13;16.07;;;7.90;;
4555;SDS011;2290;48.674;9.018;2024-01-10T04:22:40;21.70;;;7.50;;
4555;SDS011;2290;48.674;9.018;2024-01-10T04:25:06;16.90;;;7.57;;
4555;SDS011;2290;48.674;9.018;2024-01-10T04:27:32;15.50;;;7.30;;
4555;SDS011;2290;48.674;9.018;2024-01-10T04:29:58;20.53;;;7.13;;
4555;SDS011;2290;48.674;9.018;2024-01-10T04:32:23;15.70;;;6.93;;
4555;SDS011;2290;48.674;9.018;2024-01-10T04:34:49;17.53;;;7.43;;
4555;SDS011;2290;48.674;9.018;2024-01-10T04:37:15;16.73;;;7.00;;
4555;SDS011;2290;48.674;9.018;2024-01-10T04:39:41;16.50;;;7.30;;
4555;SDS011;2290;48.674;9.018;2024-01-10T04:42:08;17.63;;;7.90;;
4555;SDS011;2290;48.674;9.018;2024-01-10T04:44:35;17.90;;;7.07;;
4555;SDS011;2290;48.674;9.018;2024-01-10T04:47:01;23.00;;;8.93;;
4555;SDS011;2290;48.674;9.018;2024-01-10T04:49:27;15.10;;;7.30;;
4555;SDS011;2290;48.674;9.018;2024-01-10T04:51:52;15.90;;;7.37;;
4555;SDS011;2290;48.674;9.018;2024-01-10T04:54:19;15.00;;;6.60;;
4555;SDS011;2290;48.674;9.018;2024-01-10T04:56:45;16.40;;;6.97;;
4555;SDS011;2290;48.674;9.018;2024-01-10T04:59:12;19.47;;;8.47;;
4555;SDS011;2290;48.674;9.018;2024-01-10T05:01:38;15.30;;;6.53;;
4555;SDS011;2290;48.674;9.018;2024-01-10T05:04:03;17.37;;;7.60;;
4555;SDS011;2290;48.674;9.018;2024-01-10T05:06:30;17.93;;;7.40;;
4555;SDS011;2290;48.674;9.018;2024-01-10T05:08:56;18.97;;;7.53;;
4555;SDS011;2290;48.674;9.018;2024-01-10T05:11:24;16.93;;;6.80;;
4555;SDS011;2290;48.674;9.018;2024-01-10T05:13:53;15.63;;;7.87;;
4555;SDS011;2290;48.674;9.018;2024-01-10T05:16:19;17.43;;;7.33;;
4555;SDS011;2290;48.674;9.018;2024-01-10T05:18:45;15.47;;;7.93;;
4555;SDS011;2290;48.674;9.018;2024-01-10T05:21:11;13.77;;;7.10;;
4555;SDS011;2290;48.674;9.018;2024-01-10T05:23:37;15.93;;;7.77;;
4555;SDS011;2290;48.674;9.018;2024-01-10T05:26:04;17.27;;;7.30;;
4555;SDS011;2290;48.674;9.018;2024-01-10T05:28:30;15.00;;;6.87;;
4555;SDS011;2290;48.674;9.018;2024-01-10T05:30:55;19.40;;;7.20;;
4555;SDS011;2290;48.674;9.018;2024-01-10T05:33:23;13.67;;;6.97;;
4555;SDS011;2290;48.674;9.018;2024-01-10T05:35:48;16.83;;;7.90;;
4555;SDS011;2290;48.674;9.018;2024-01-10T05:38:14;20.07;;;7.97;;
4555;SDS011;2290;48.674;9.018;2024-01-10T05:40:39;18.37;;;8.10;;
4555;SDS011;2290;48.674;9.018;2024-01-10T05:43:05;16.97;;;6.77;;
4555;SDS011;2290;48.674;9.018;2024-01-10T05:45:32;15.33;;;7.03;;
4555;SDS011;2290;48.674;9.018;2024-01-10T05:47:58;16.63;;;8.07;;
4555;SDS011;2290;48.674;9.018;2024-01-10T05:50:23;13.07;;;6.03;;
4555;SDS011;2290;48.674;9.018;2024-01-10T05:52:49;18.20;;;8.17;;
4555;SDS011;2290;48.674;9.018;2024-01-10T05:55:15;15.90;;;7.63;;
4555;SDS011;2290;48.674;9.018;2024-01-10T05:57:40;18.33;;;6.90;;
4555;SDS011;2290;48.674;9.018;2024-01-10T06:00:06;21.10;;;7.50;;
4555;SDS011;2290;48.674;9.018;2024-01-10T06:02:35;15.00;;;7.20;;
4555;SDS011;2290;48.674;9.018;2024-01-10T06:05:13;17.67;;;7.17;;
4555;SDS011;2290;48.674;9.018;2024-01-10T06:07:39;16.40;;;7.17;;
4555;SDS011;2290;48.674;9.018;2024-01-10T06:10:08;16.60;;;8.60;;
4555;SDS011;2290;48.674;9.018;2024-01-10T06:12:34;15.07;;;6.97;;
4555;SDS011;2290;48.674;9.018;2024-01-10T06:15:00;12.23;;;6.27;;
4555;SDS011;2290;48.674;9.018;2024-01-10T06:17:26;14.27;;;6.60;;
4555;SDS011;2290;48.674;9.018;2024-01-10T06:19:52;14.57;;;7.10;;
4555;SDS011;2290;48.674;9.018;2024-01-10T06:22:17;22.83;;;8.13;;
4555;SDS011;2290;48.674;9.018;2024-01-10T06:24:43;19.70;;;7.70;;
4555;SDS011;2290;48.674;9.018;2024-01-10T06:27:09;18.20;;;8.07;;
4555;SDS011;2290;48.674;9.018;2024-01-10T06:29:35;18.20;;;8.07;;
4555;SDS011;2290;48.674;9.018;2024-01-10T06:32:01;17.73;;;7.73;;
4555;SDS011;2290;48.674;9.018;2024-01-10T06:34:28;18.57;;;6.77;;
4555;SDS011;2290;48.674;9.018;2024-01-10T06:36:54;23.67;;;7.50;;
4555;SDS011;2290;48.674;9.018;2024-01-10T06:39:20;18.50;;;7.10;;
4555;SDS011;2290;48.674;9.018;2024-01-10T06:41:49;15.50;;;6.90;;
4555;SDS011;2290;48.674;9.018;2024-01-10T06:44:15;16.27;;;7.73;;
4555;SDS011;2290;48.674;9.018;2024-01-10T06:46:44;17.60;;;7.40;;
4555;SDS011;2290;48.674;9.018;2024-01-10T06:49:10;16.70;;;8.00;;
4555;SDS011;2290;48.674;9.018;2024-01-10T06:51:36;18.63;;;7.30;;
4555;SDS011;2290;48.674;9.018;2024-01-10T06:54:01;18.23;;;7.80;;
4555;SDS011;2290;48.674;9.018;2024-01-10T06:56:30;18.90;;;8.10;;
4555;SDS011;2290;48.674;9.018;2024-01-10T06:58:57;10.30;;;6.37;;
4555;SDS011;2290;48.674;9.018;2024-01-10T07:01:23;21.00;;;7.23;;
4555;SDS011;2290;48.674;9.018;2024-01-10T07:03:49;14.43;;;6.60;;
4555;SDS011;2290;48.674;9.018;2024-01-10T07:06:15;16.70;;;7.10;;
4555;SDS011;2290;48.674;9.018;2024-01-10T07:08:41;14.83;;;6.87;;
4555;SDS011;2290;48.674;9.018;2024-01-10T07:11:11;14.70;;;6.70;;
4555;SDS011;2290;48.674;9.018;2024-01-10T07:13:36;17.37;;;8.40;;
4555;SDS011;2290;48.674;9.018;2024-01-10T07:16:02;18.00;;;8.27;;
4555;SDS011;2290;48.674;9.018;2024-01-10T07:18:28;16.87;;;8.33;;
4555;SDS011;2290;48.674;9.018;2024-01-10T07:20:54;17.50;;;6.80;;
4555;SDS011;2290;48.674;9.018;2024-01-10T07:23:20;15.43;;;7.60;;
4555;SDS011;2290;48.674;9.018;2024-01-10T07:25:49;13.83;;;5.93;;
4555;SDS011;2290;48.674;9.018;2024-01-10T07:28:15;14.43;;;6.97;;
4555;SDS011;2290;48.674;9.018;2024-01-10T07:30:42;16.70;;;7.97;;
4555;SDS011;2290;48.674;9.018;2024-01-10T07:33:09;14.57;;;7.77;;
4555;SDS011;2290;48.674;9.018;2024-01-10T07:35:35;16.93;;;7.07;;
4555;SDS011;2290;48.674;9.018;2024-01-10T07:38:03;13.30;;;7.80;;
4555;SDS011;2290;48.674;9.018;2024-01-10T07:40:28;14.50;;;7.70;;
4555;SDS011;2290;48.674;9.018;2024-01-10T07:42:54;18.03;;;7.37;;
4555;SDS011;2290;48.674;9.018;2024-01-10T07:45:21;18.67;;;7.47;;
4555;SDS011;2290;48.674;9.018;2024-01-10T07:47:48;23.00;;;8.37;;
4555;SDS011;2290;48.674;9.018;2024-01-10T07:50:14;18.93;;;9.80;;
4555;SDS011;2290;48.674;9.018;2024-01-10T07:52:40;16.97;;;7.37;;
4555;SDS011;2290;48.674;9.018;2024-01-10T07:55:09;14.83;;;6.70;;
4555;SDS011;2290;48.674;9.018;2024-01-10T07:57:35;23.13;;;8.30;;
4555;SDS011;2290;48.674;9.018;2024-01-10T08:00:07;14.20;;;8.47;;
4555;SDS011;2290;48.674;9.018;2024-01-10T08:02:36;13.57;;;7.53;;
4555;SDS011;2290;48.674;9.018;2024-01-10T08:05:03;19.23;;;8.13;;
4555;SDS011;2290;48.674;9.018;2024-01-10T08:07:37;15.27;;;7.70;;
4555;SDS011;2290;48.674;9.018;2024-01-10T08:10:07;25.70;;;8.50;;
4555;SDS011;2290;48.674;9.018;2024-01-10T08:12:36;15.03;;;7.17;;
4555;SDS011;2290;48.674;9.018;2024-01-10T08:15:04;22.37;;;8.77;;
4555;SDS011;2290;48.674;9.018;2024-01-10T08:17:33;14.73;;;7.70;;
4555;SDS011;2290;48.674;9.018;2024-01-10T08:20:02;16.17;;;8.90;;
4555;SDS011;2290;48.674;9.018;2024-01-10T08:22:29;15.63;;;7.63;;
4555;SDS011;2290;48.674;9.018;2024-01-10T08:24:54;18.77;;;8.80;;
4555;SDS011;2290;48.674;9.018;2024-01-10T08:27:21;14.83;;;7.10;;
4555;SDS011;2290;48.674;9.018;2024-01-10T08:29:47;14.80;;;7.70;;
4555;SDS011;2290;48.674;9.018;2024-01-10T08:32:13;19.53;;;8.20;;
4555;SDS011;2290;48.674;9.018;2024-01-10T08:34:41;15.70;;;8.53;;
4555;SDS011;2290;48.674;9.018;2024-01-10T08:37:08;22.27;;;9.73;;
4555;SDS011;2290;48.674;9.018;2024-01-10T08:39:33;17.23;;;9.40;;
4555;SDS011;2290;48.674;9.018;2024-01-10T08:42:01;13.70;;;7.83;;
4555;SDS011;2290;48.674;9.018;2024-01-10T08:44:27;20.13;;;9.10;;
4555;SDS011;2290;48.674;9.018;2024-01-10T08:46:52;20.70;;;8.83;;
4555;SDS011;2290;48.674;9.018;2024-01-10T08:49:18;18.60;;;8.83;;
4555;SDS011;2290;48.674;9.018;2024-01-10T08:51:43;21.23;;;9.60;;
4555;SDS011;2290;48.674;9.018;2024-01-10T08:54:11;26.50;;;9.60;;
4555;SDS011;2290;48.674;9.018;2024-01-10T08:56:44;20.17;;;10.07;;
4555;SDS011;2290;48.674;9.018;2024-01-10T08:59:13;17.33;;;8.80;;
4555;SDS011;2290;48.674;9.018;2024-01-10T09:01:43;22.20;;;10.50;;
4555;SDS011;2290;48.674;9.018;2024-01-10T09:04:09;23.17;;;9.87;;
4555;SDS011;2290;48.674;9.018;2024-01-10T09:06:35;19.63;;;8.83;;
4555;SDS011;2290;48.674;9.018;2024-01-10T09:09:03;24.90;;;10.77;;
4555;SDS011;2290;48.674;9.018;2024-01-10T09:11:29;24.27;;;9.27;;
4555;SDS011;2290;48.674;9.018;2024-01-10T09:13:54;20.20;;;9.70;;
4555;SDS011;2290;48.674;9.018;2024-01-10T09:16:20;24.50;;;10.57;;
4555;SDS011;2290;48.674;9.018;2024-01-10T09:18:48;18.43;;;9.10;;
4555;SDS011;2290;48.674;9.018;2024-01-10T09:21:19;23.67;;;10.47;;
4555;SDS011;2290;48.674;9.018;2024-01-10T09:23:45;22.30;;;9.80;;
4555;SDS011;2290;48.674;9.018;2024-01-10T09:26:12;25.57;;;11.00;;
4555;SDS011;2290;48.674;9.018;2024-01-10T09:28:38;24.30;;;10.37;;
4555;SDS011;2290;48.674;9.018;2024-01-10T09:31:05;20.93;;;10.40;;
4555;SDS011;2290;48.674;9.018;2024-01-10T09:33:32;18.27;;;8.57;;
4555;SDS011;2290;48.674;9.018;2024-01-10T09:35:59;27.03;;;10.83;;
4555;SDS011;2290;48.674;9.018;2024-01-10T09:38:24;24.23;;;10.10;;
4555;SDS011;2290;48.674;9.018;2024-01-10T09:40:51;22.80;;;11.20;;
4555;SDS011;2290;48.674;9.018;2024-01-10T09:43:22;19.27;;;10.57;;
4555;SDS011;2290;48.674;9.018;2024-01-10T09:45:48;36.10;;;10.50;;
4555;SDS011;2290;48.674;9.018;2024-01-10T09:48:15;21.43;;;11.07;;
4555;SDS011;2290;48.674;9.018;2024-01-10T09:50:41;21.73;;;10.63;;
4555;SDS011;2290;48.674;9.018;2024-01-10T09:53:07;23.40;;;10.10;;
4555;SDS011;2290;48.674;9.018;2024-01-10T09:55:40;24.97;;;10.77;;
4555;SDS011;2290;48.674;9.018;2024-01-10T09:58:07;28.30;;;12.40;;
4555;SDS011;2290;48.674;9.018;2024-01-10T10:00:34;23.43;;;10.70;;
4555;SDS011;2290;48.674;9.018;2024-01-10T10:03:01;25.90;;;11.23;;
4555;SDS011;2290;48.674;9.018;2024-01-10T10:05:29;24.80;;;10.73;;
4555;SDS011;2290;48.674;9.018;2024-01-10T10:07:55;24.13;;;10.53;;
4555;SDS011;2290;48.674;9.018;2024-01-10T10:10:22;21.03;;;11.57;;
4555;SDS011;2290;48.674;9.018;2024-01-10T10:12:51;23.70;;;11.50;;
4555;SDS011;2290;48.674;9.018;2024-01-10T10:15:18;27.57;;;12.20;;
4555;SDS011;2290;48.674;9.018;2024-01-10T10:17:47;21.10;;;10.67;;
4555;SDS011;2290;48.674;9.018;2024-01-10T10:20:20;27.73;;;12.20;;
4555;SDS011;2290;48.674;9.018;2024-01-10T10:22:57;23.30;;;10.33;;
4555;SDS011;2290;48.674;9.018;2024-01-10T10:27:57;24.30;;;10.80;;
4555;SDS011;2290;48.674;9.018;2024-01-10T10:30:22;28.60;;;12.93;;
4555;SDS011;2290;48.674;9.018;2024-01-10T10:32:48;23.50;;;11.10;;
4555;SDS011;2290;48.674;9.018;2024-01-10T10:35:14;21.53;;;10.30;;
4555;SDS011;2290;48.674;9.018;2024-01-10T10:37:41;24.90;;;11.47;;
4555;SDS011;2290;48.674;9.018;2024-01-10T10:40:07;22.77;;;11.23;;
4555;SDS011;2290;48.674;9.018;2024-01-10T10:42:34;26.20;;;11.60;;
4555;SDS011;2290;48.674;9.018;2024-01-10T10:45:03;20.90;;;10.37;;
4555;SDS011;2290;48.674;9.018;2024-01-10T10:47:31;25.43;;;11.70;;
4555;SDS011;2290;48.674;9.018;2024-01-10T10:50:04;29.27;;;11.10;;
4555;SDS011;2290;48.674;9.018;2024-01-10T10:52:36;25.17;;;12.27;;
4555;SDS011;2290;48.674;9.018;2024-01-10T10:55:04;22.13;;;10.77;;
4555;SDS011;2290;48.674;9.018;2024-01-10T10:57:30;24.87;;;11.33;;
4555;SDS011;2290;48.674;9.018;2024-01-10T10:59:56;24.20;;;11.10;;
4555;SDS011;2290;48.674;9.018;2024-01-10T11:02:24;28.30;;;11.67;;
4555;SDS011;2290;48.674;9.018;2024-01-10T11:04:49;22.93;;;11.33;;
4555;SDS011;2290;48.674;9.018;2024-01-10T11:07:16;21.00;;;10.90;;
4555;SDS011;2290;48.674;9.018;2024-01-10T11:09:43;21.07;;;10.90;;
4555;SDS011;2290;48.674;9.018;2024-01-10T11:12:27;26.13;;;11.90;;
4555;SDS011;2290;48.674;9.018;2024-01-10T11:15:03;23.80;;;11.43;;
4555;SDS011;2290;48.674;9.018;2024-01-10T11:17:56;23.57;;;11.07;;
4555;SDS011;2290;48.674;9.018;2024-01-10T11:23:45;20.17;;;11.03;;
4555;SDS011;2290;48.674;9.018;2024-01-10T11:26:16;21.30;;;10.57;;
4555;SDS011;2290;48.674;9.018;2024-01-10T11:28:43;23.30;;;10.50;;
4555;SDS011;2290;48.674;9.018;2024-01-10T11:31:09;20.40;;;11.03;;
4555;SDS011;2290;48.674;9.018;2024-01-10T11:33:36;23.17;;;10.70;;
4555;SDS011;2290;48.674;9.018;2024-01-10T11:36:19;22.73;;;10.87;;
4555;SDS011;2290;48.674;9.018;2024-01-10T11:41:34;20.37;;;11.70;;
4555;SDS011;2290;48.674;9.018;2024-01-10T11:44:25;22.27;;;11.60;;
4555;SDS011;2290;48.674;9.018;2024-01-10T11:46:52;27.30;;;10.87;;
4555;SDS011;2290;48.674;9.018;2024-01-10T11:49:21;17.40;;;10.23;;
4555;SDS011;2290;48.674;9.018;2024-01-10T11:51:49;23.27;;;11.93;;
4555;SDS011;2290;48.674;9.018;2024-01-10T11:57:22;20.00;;;11.47;;
4555;SDS011;2290;48.674;9.018;2024-01-10T11:59:52;22.93;;;11.67;;
4555;SDS011;2290;48.674;9.018;2024-01-10T12:02:19;25.17;;;11.37;;
4555;SDS011;2290;48.674;9.018;2024-01-10T12:04:46;21.07;;;11.57;;
4555;SDS011;2290;48.674;9.018;2024-01-10T12:07:13;30.13;;;12.00;;
4555;SDS011;2290;48.674;9.018;2024-01-10T12:09:39;24.73;;;11.70;;
4555;SDS011;2290;48.674;9.018;2024-01-10T12:12:06;19.27;;;10.50;;
4555;SDS011;2290;48.674;9.018;2024-01-10T12:14:32;19.80;;;11.20;;
4555;SDS011;2290;48.674;9.018;2024-01-10T12:16:59;18.43;;;9.70;;
4555;SDS011;2290;48.674;9.018;2024-01-10T12:19:25;19.40;;;10.40;;
4555;SDS011;2290;48.674;9.018;2024-01-10T12:21:52;20.50;;;10.80;;
4555;SDS011;2290;48.674;9.018;2024-01-10T12:24:18;22.37;;;11.07;;
4555;SDS011;2290;48.674;9.018;2024-01-10T12:26:44;21.37;;;10.43;;
4555;SDS011;2290;48.674;9.018;2024-01-10T12:29:11;19.90;;;9.50;;
4555;SDS011;2290;48.674;9.018;2024-01-10T12:31:37;20.50;;;9.80;;
4555;SDS011;2290;48.674;9.018;2024-01-10T12:34:04;23.00;;;10.80;;
4555;SDS011;2290;48.674;9.018;2024-01-10T12:36:32;24.00;;;11.10;;
4555;SDS011;2290;48.674;9.018;2024-01-10T12:38:57;28.07;;;11.37;;
4555;SDS011;2290;48.674;9.018;2024-01-10T12:41:23;24.50;;;11.93;;
4555;SDS011;2290;48.674;9.018;2024-01-10T12:43:49;22.37;;;11.87;;
4555;SDS011;2290;48.674;9.018;2024-01-10T12:46:20;20.77;;;9.23;;
4555;SDS011;2290;48.674;9.018;2024-01-10T12:48:49;22.00;;;10.70;;
4555;SDS011;2290;48.674;9.018;2024-01-10T12:51:32;22.70;;;10.30;;
4555;SDS011;2290;48.674;9.018;2024-01-10T12:54:01;24.53;;;10.90;;
4555;SDS011;2290;48.674;9.018;2024-01-10T12:56:28;22.70;;;11.10;;
4555;SDS011;2290;48.674;9.018;2024-01-10T12:58:55;22.53;;;11.33;;
4555;SDS011;2290;48.674;9.018;2024-01-10T13:01:22;20.33;;;10.67;;
4555;SDS011;2290;48.674;9.018;2024-01-10T13:03:49;19.90;;;10.43;;
4555;SDS011;2290;48.674;9.018;2024-01-10T13:06:15;21.47;;;11.03;;
4555;SDS011;2290;48.674;9.018;2024-01-10T13:08:42;20.17;;;9.77;;
4555;SDS011;2290;48.674;9.018;2024-01-10T13:11:09;22.40;;;10.20;;
4555;SDS011;2290;48.674;9.018;2024-01-10T13:13:36;18.50;;;10.53;;
4555;SDS011;2290;48.674;9.018;2024-01-10T13:16:01;20.63;;;9.90;;
4555;SDS011;2290;48.674;9.018;2024-01-10T13:18:27;20.73;;;11.40;;
4555;SDS011;2290;48.674;9.018;2024-01-10T13:20:56;20.50;;;10.90;;
4555;SDS011;2290;48.674;9.018;2024-01-10T13:23:22;19.07;;;9.97;;
4555;SDS011;2290;48.674;9.018;2024-01-10T13:25:49;19.07;;;9.80;;
4555;SDS011;2290;48.674;9.018;2024-01-10T13:28:15;17.97;;;10.23;;
4555;SDS011;2290;48.674;9.018;2024-01-10T13:30:41;19.27;;;10.27;;
4555;SDS011;2290;48.674;9.018;2024-01-10T13:33:08;19.67;;;10.50;;
4555;SDS011;2290;48.674;9.018;2024-01-10T13:35:34;21.80;;;9.23;;
4555;SDS011;2290;48.674;9.018;2024-01-10T13:38:00;21.00;;;9.87;;
4555;SDS011;2290;48.674;9.018;2024-01-10T13:40:26;21.40;;;10.53;;
4555;SDS011;2290;48.674;9.018;2024-01-10T13:42:53;19.33;;;9.30;;
4555;SDS011;2290;48.674;9.018;2024-01-10T13:45:19;19.30;;;9.80;;
4555;SDS011;2290;48.674;9.018;2024-01-10T13:47:45;21.40;;;10.00;;
4555;SDS011;2290;48.674;9.018;2024-01-10T13:50:11;18.40;;;10.10;;
4555;SDS011;2290;48.674;9.018;2024-01-10T13:52:37;23.30;;;9.77;;
4555;SDS011;2290;48.674;9.018;2024-01-10T13:55:03;23.87;;;10.30;;
4555;SDS011;2290;48.674;9.018;2024-01-10T13:57:32;20.03;;;8.83;;
4555;SDS011;2290;48.674;9.018;2024-01-10T13:59:58;17.83;;;8.83;;
4555;SDS011;2290;48.674;9.018;2024-01-10T14:02:25;19.83;;;9.10;;
4555;SDS011;2290;48.674;9.018;2024-01-10T14:04:51;17.07;;;8.50;;
4555;SDS011;2290;48.674;9.018;2024-01-10T14:07:19;21.23;;;9.83;;
4555;SDS011;2290;48.674;9.018;2024-01-10T14:09:45;15.63;;;8.77;;
4555;SDS011;2290;48.674;9.018;2024-01-10T14:12:11;22.73;;;10.00;;
4555;SDS011;2290;48.674;9.018;2024-01-10T14:14:37;15.87;;;8.43;;
4555;SDS011;2290;48.674;9.018;2024-01-10T14:17:03;16.63;;;9.80;;
4555;SDS011;2290;48.674;9.018;2024-01-10T14:19:30;20.70;;;9.90;;
4555;SDS011;2290;48.674;9.018;2024-01-10T14:21:56;18.57;;;8.73;;
4555;SDS011;2290;48.674;9.018;2024-01-10T14:24:22;15.70;;;8.37;;
4555;SDS011;2290;48.674;9.018;2024-01-10T14:26:48;15.17;;;8.83;;
4555;SDS011;2290;48.674;9.018;2024-01-10T14:29:13;16.93;;;9.03;;
4555;SDS011;2290;48.674;9.018;2024-01-10T14:31:39;16.97;;;8.97;;
4555;SDS011;2290;48.674;9.018;2024-01-10T14:34:05;16.63;;;9.20;;
4555;SDS011;2290;48.674;9.018;2024-01-10T14:36:31;16.27;;;9.80;;
4555;SDS011;2290;48.674;9.018;2024-01-10T14:38:56;18.53;;;9.57;;
4555;SDS011;2290;48.674;9.018;2024-01-10T14:41:22;20.37;;;9.67;;
4555;SDS011;2290;48.674;9.018;2024-01-10T14:43:49;14.27;;;8.07;;
4555;SDS011;2290;48.674;9.018;2024-01-10T14:46:17;20.83;;;9.50;;
4555;SDS011;2290;48.674;9.018;2024-01-10T14:48:42;18.43;;;9.03;;
4555;SDS011;2290;48.674;9.018;2024-01-10T14:51:08;15.27;;;8.43;;
4555;SDS011;2290;48.674;9.018;2024-01-10T14:53:33;16.80;;;9.47;;
4555;SDS011;2290;48.674;9.018;2024-01-10T14:56:02;18.80;;;9.17;;
4555;SDS011;2290;48.674;9.018;2024-01-10T14:58:27;15.90;;;9.37;;
4555;SDS011;2290;48.674;9.018;2024-01-10T15:00:53;15.57;;;9.83;;
4555;SDS011;2290;48.674;9.018;2024-01-10T15:03:18;16.23;;;8.80;;
4555;SDS011;2290;48.674;9.018;2024-01-10T15:05:44;16.53;;;9.77;;
4555;SDS011;2290;48.674;9.018;2024-01-10T15:08:10;15.87;;;8.83;;